Airfield :







YOU CAN JOIN US ON...

 
LOGIN :

Register | Disclaimer

   EN    FR    IT 

 









Legend :    VFR   Marginal VFR   IFR   Intensive IFR   Very Intensive IFR
Visi :
Ceiling :
>= 8 km
>= 3000ft
5 to 8 km
1000 to 3000 ft
1500m to 5 km
500 to 1000 ft
800 to 1500m
200 to 500 ft
< 800m
< 200 ft
Symbols :   Thunderstorms  Fog  Heavy snow  Heavy precipitations  Wind > 20 kt







- Airport Elevation : 930 ft


KEFK - Newport State

CURRENT METAR :
  • 150756Z AUTO 26007G14KT 10SM CLR 14/09 A3010 RMK AO2 T01390094

EXPIRED METARs :
  • 150736Z AUTO 24006KT 10SM CLR 14/09 A3009 RMK AO2 T01380093
  • 150716Z AUTO 25007KT 10SM CLR 15/09 A3010 RMK AO2 T01450090
  • 150656Z AUTO 26008G15KT 10SM CLR 15/09 A3010 RMK AO2 T01520091
  • 150636Z AUTO 27013G17KT 220V300 10SM CLR 15/10 A3010 RMK AO2 T01540096
  • 150617Z AUTO 26008G17KT 10SM CLR 16/11 A3010 RMK AO2 T01570108
  • 150556Z AUTO 26010G16KT 10SM SCT048 SCT060 16/12 A3010 RMK AO2 T01580117 10167 20145
  • 150536Z AUTO 26010KT 10SM SCT032 SCT041 SCT060 16/13 A3010 RMK AO2 T01630125
  • 150516Z AUTO 25012G16KT 10SM SCT032 SCT038 BKN060 17/13 A3010 RMK AO2 T01650126
  • 150456Z AUTO 24010G15KT 10SM SCT031 SCT039 SCT047 16/13 A3009 RMK AO2 T01630126 401680104

TAF N/A
No reported NOTAMs for that airfield.



MET'MAP, your aeronautical weather chart ! - Copyright ORBIFLY December 2007 - Disclaimer

ORBIFLY MET'MAP TEAM :

Programming & Development : Alexandra Zaïnal
Concept & Development : Baudouin d'Aumeries
Co-Development & Prog : Marc-Olivier Méhu
Technical & hardware support : Manuel Goepfert

Contact : metmap@orbifly.com




SOURCES & CREDITS :

   NOAA